Terminal Aerodrome Forecast
Issued by NWS

Home | Current Version | Previous Version | Text Only | Print | Product List | Glossary On
Versions: 1 2 3 4 5 6 7 8 9 10 11 12
664
FTAK31 PAJN 101126
TAFAKT
TAF
PAKT 101126Z 1012/1112 30009KT P6SM OVC060
     FM102100 32006KT P6SM FEW050
      AMD LTD TO CLD VIS AND WIND 1012/1015=

USA.gov is the U.S. government's official web portal to all federal, state and local government web resources and services.